Historique des stations

Station météo de Romilly-sur-Aigre

Altitude de la station : 111 m







Données météorologiques pour le 16/09/2021
Date
Heure
Températures Humidité Point de rosée Vitesse
du vent
Direction Rafales Windchill Pression Pluviométrie
Cumul
Date
Heure
Températures Humidité Point de rosée Vitesse
du vent
Direction Rafales Windchill Pression Pluviométrie
Cumul
16/09/2021 12:5620.5 °C78 %16.5 °C5 km/hNE16 km/h16.51018 hPa0.0 mm
16/09/2021 12:4120.9 °C77 %16.7 °C5 km/hNE18 km/h16.71018 hPa0.0 mm
16/09/2021 12:2621.0 °C76 %16.6 °C5 km/hE15 km/h16.61018 hPa0.0 mm
16/09/2021 12:1120.6 °C80 %17.0 °C15 km/hE21 km/h17.01018 hPa0.0 mm
16/09/2021 11:5120.1 °C80 %16.5 °C16 km/hENE18 km/h16.51018 hPa0.0 mm
16/09/2021 11:3619.6 °C81 %16.2 °C11 km/hENE21 km/h16.21018 hPa0.0 mm
16/09/2021 11:2119.2 °C82 %16.0 °C15 km/hNNE16 km/h16.01018 hPa0.0 mm
16/09/2021 11:0618.9 °C83 %16.0 °C5 km/hENE16 km/h16.01018 hPa0.0 mm
16/09/2021 10:5118.6 °C84 %15.8 °C8 km/hNE16 km/h15.81018 hPa0.0 mm
16/09/2021 10:3618.1 °C85 %15.5 °C16 km/hENE18 km/h15.51018 hPa0.0 mm
16/09/2021 10:2117.2 °C88 %15.2 °C8 km/hENE15 km/h15.21018 hPa0.0 mm
16/09/2021 10:0616.4 °C89 %14.6 °C5 km/hNNE11 km/h14.61018 hPa0.0 mm
16/09/2021 09:5116.1 °C89 %14.2 °C5 km/hNNO13 km/h14.21018 hPa0.0 mm
16/09/2021 09:3615.8 °C90 %14.2 °C5 km/hNNE11 km/h14.21017 hPa0.0 mm
16/09/2021 09:2115.3 °C91 %13.9 °C6 km/hNE10 km/h13.91017 hPa0.0 mm
16/09/2021 09:0614.7 °C92 %13.4 °C3 km/hNNO6 km/h13.41017 hPa0.0 mm
16/09/2021 08:4614.4 °C91 %12.9 °C-N5 km/h12.91017 hPa0.0 mm
16/09/2021 08:3114.5 °C91 %13.0 °C3 km/hNNE6 km/h13.01017 hPa0.0 mm
16/09/2021 08:1614.7 °C90 %13.0 °C5 km/hNNE8 km/h13.01017 hPa0.0 mm
16/09/2021 08:0115.1 °C89 %13.3 °C-NNE10 km/h13.31017 hPa0.0 mm
16/09/2021 07:4615.3 °C89 %13.5 °C3 km/hNNE10 km/h13.51017 hPa0.0 mm
16/09/2021 07:3115.5 °C89 %13.7 °C3 km/hN11 km/h13.71017 hPa0.0 mm
16/09/2021 07:1615.6 °C89 %13.7 °C3 km/hNNE11 km/h13.71016 hPa0.0 mm
16/09/2021 07:0115.6 °C89 %13.7 °C3 km/hNNE11 km/h13.71016 hPa0.0 mm
16/09/2021 06:5115.6 °C89 %13.8 °C6 km/hN8 km/h13.81016 hPa0.0 mm
16/09/2021 06:3615.7 °C89 %13.9 °C5 km/hNNE8 km/h13.91016 hPa0.0 mm
16/09/2021 06:3115.7 °C89 %13.9 °C-NNE6 km/h13.91016 hPa0.0 mm
16/09/2021 06:1615.7 °C89 %13.9 °C5 km/hNE10 km/h13.91016 hPa0.0 mm
16/09/2021 06:0115.7 °C89 %13.9 °C10 km/hN13 km/h13.91016 hPa0.0 mm
16/09/2021 05:4615.8 °C89 %14.0 °C5 km/hNNE11 km/h14.01016 hPa0.0 mm
16/09/2021 05:3115.9 °C90 %14.3 °C6 km/hNNE10 km/h14.31016 hPa0.0 mm
16/09/2021 05:1616.1 °C90 %14.5 °C15 km/hNE15 km/h14.51016 hPa0.0 mm
16/09/2021 05:0116.3 °C91 %14.8 °C2 km/hNNO5 km/h14.81016 hPa0.0 mm
16/09/2021 04:4616.3 °C90 %14.7 °C-NNE5 km/h14.71016 hPa0.0 mm
16/09/2021 04:3116.6 °C90 %14.9 °C3 km/hNNE5 km/h14.91016 hPa0.0 mm
16/09/2021 04:1116.6 °C89 %14.8 °C-NNO6 km/h14.81016 hPa0.0 mm
16/09/2021 03:5616.7 °C89 %14.9 °C6 km/hN8 km/h14.91016 hPa0.0 mm
16/09/2021 03:4116.8 °C89 %15.0 °C6 km/hNW10 km/h15.01016 hPa0.0 mm
16/09/2021 03:2616.9 °C89 %15.1 °C2 km/hN8 km/h15.11016 hPa0.0 mm
16/09/2021 03:1117.1 °C90 %15.5 °C2 km/hN8 km/h15.51016 hPa0.0 mm
16/09/2021 02:5617.3 °C91 %15.8 °C2 km/hNNE8 km/h15.81016 hPa0.0 mm
16/09/2021 02:4117.3 °C91 %15.8 °C3 km/hN11 km/h15.81016 hPa0.0 mm
16/09/2021 02:2617.4 °C90 %15.8 °C2 km/hNNE8 km/h15.81016 hPa0.0 mm
16/09/2021 02:1117.6 °C90 %16.0 °C5 km/hNNE8 km/h16.01016 hPa0.0 mm
16/09/2021 01:5617.7 °C89 %15.8 °C6 km/hNE10 km/h15.81016 hPa0.0 mm
16/09/2021 01:4117.7 °C88 %15.7 °C8 km/hNNE13 km/h15.71016 hPa0.0 mm
16/09/2021 01:2617.8 °C88 %15.8 °C6 km/hNNE13 km/h15.81016 hPa0.0 mm
16/09/2021 01:0617.9 °C87 %15.7 °C6 km/hNNE15 km/h15.71016 hPa0.0 mm
16/09/2021 00:5117.9 °C87 %15.7 °C15 km/hNE19 km/h15.71015 hPa0.0 mm
16/09/2021 00:3618.1 °C88 %16.1 °C6 km/hN15 km/h16.11015 hPa0.0 mm
16/09/2021 00:2118.2 °C89 %16.4 °C3 km/hNW13 km/h16.41015 hPa0.0 mm
16/09/2021 00:0618.2 °C88 %16.2 °C15 km/hNNE19 km/h16.21015 hPa0.0 mm


Minima :

Température : 14.4 °C
Humidité : 76 %
Point de rosée : 12.9 °C
Vent moyen : 2 km/h
Windchill : 12.9
Pression atm. : 1015 hPa
Maxima :

Température : 21.0 °C
Humidité : 92 %
Point de rosée : 17.0 °C
Vent moyen : 16 km/h
Windchill : 17.0
Pression atm. : 1018 hPa
Rafales max : 21 km/h
Cumul de pluie sur 24H : 0 mm

Romilly-sur-Aigre est une commune du département Eure-et-Loir (28).
La station météorologique du réseau de l'association la plus proche de Romilly-sur-Aigre est celle de Mainvilliers
Site du propriétaire de la station : http://www.sohade.fr



Icône Facebook Association Météo Centre Icône Twitter Association Météo Centre Icône Chaîne Youtube Association Météo Centre Icône contact Association Météo Centre Icône Insta Association Météo Centre